createdAt,value
2023-03-02T00:00:02.468Z,60.86
2023-03-02T00:03:29.146Z,60.85
2023-03-02T00:06:34.623Z,60.96
2023-03-02T00:09:38.725Z,60.97
2023-03-02T00:12:42.570Z,61.05
2023-03-02T00:15:45.843Z,61.05
2023-03-02T00:18:49.196Z,61.09
2023-03-02T00:21:52.414Z,61.17
2023-03-02T00:24:55.628Z,61.14
2023-03-02T00:27:58.795Z,61.12
2023-03-02T00:31:05.344Z,61.16
2023-03-02T00:34:08.685Z,61.16
2023-03-02T00:37:11.885Z,61.24
2023-03-02T00:40:15.486Z,61.31
2023-03-02T00:43:18.785Z,61.37
2023-03-02T00:46:24.340Z,61.41
2023-03-02T00:49:28.271Z,61.48
2023-03-02T00:52:32.924Z,61.53
2023-03-02T00:55:37.729Z,61.47
2023-03-02T00:58:41.185Z,61.46
2023-03-02T01:01:44.633Z,61.49
2023-03-02T01:04:48.382Z,61.51
2023-03-02T01:07:51.649Z,61.62
2023-03-02T01:10:54.930Z,61.60
2023-03-02T01:13:58.172Z,61.51
2023-03-02T01:17:01.394Z,61.56
2023-03-02T01:20:06.322Z,61.59
2023-03-02T01:23:09.581Z,61.64
2023-03-02T01:26:12.918Z,61.68
2023-03-02T01:29:16.213Z,61.65
2023-03-02T01:32:19.498Z,61.59
2023-03-02T01:35:23.399Z,61.61
2023-03-02T01:38:27.253Z,61.62
2023-03-02T01:41:31.484Z,61.69
2023-03-02T01:44:47.651Z,61.79
2023-03-02T01:47:51.000Z,61.84
2023-03-02T01:50:55.507Z,61.87
2023-03-02T01:54:04.863Z,61.93
2023-03-02T01:57:09.284Z,61.87
2023-03-02T02:00:29.074Z,61.89
2023-03-02T02:03:32.476Z,61.92
2023-03-02T02:06:43.248Z,61.97
2023-03-02T02:09:49.829Z,62.00
2023-03-02T02:12:53.503Z,62.00
2023-03-02T02:15:56.760Z,62.09
2023-03-02T02:19:02.177Z,62.13
2023-03-02T02:22:05.415Z,62.19
2023-03-02T02:25:22.570Z,62.28
2023-03-02T02:28:31.859Z,62.27
2023-03-02T02:31:40.479Z,62.18
2023-03-02T02:34:49.165Z,62.20
2023-03-02T02:37:56.412Z,62.25
2023-03-02T02:41:04.374Z,62.31
2023-03-02T02:44:14.876Z,62.39
2023-03-02T02:47:21.882Z,62.48
2023-03-02T02:50:35.459Z,62.53
2023-03-02T02:53:45.187Z,62.58
2023-03-02T02:56:50.221Z,62.58
2023-03-02T03:00:01.029Z,62.57
2023-03-02T03:03:29.455Z,62.60
2023-03-02T03:06:42.444Z,62.69
2023-03-02T03:09:55.672Z,62.79
2023-03-02T03:12:59.193Z,62.79
2023-03-02T03:16:03.777Z,62.86
2023-03-02T03:19:18.401Z,62.96
2023-03-02T03:22:21.891Z,63.02
2023-03-02T03:25:27.441Z,63.05
2023-03-02T03:28:32.226Z,63.06
2023-03-02T03:31:35.867Z,63.07
2023-03-02T03:34:41.149Z,63.10
2023-03-02T03:37:56.874Z,63.13
2023-03-02T03:41:00.216Z,63.17
2023-03-02T03:44:04.707Z,63.22
2023-03-02T03:47:08.720Z,63.26
2023-03-02T03:50:12.770Z,63.23
2023-03-02T03:53:16.579Z,63.25
2023-03-02T03:56:19.835Z,63.20
2023-03-02T03:59:24.805Z,63.19
2023-03-02T04:02:31.845Z,63.21
2023-03-02T04:05:35.378Z,63.25
2023-03-02T04:08:40.062Z,63.29
2023-03-02T04:11:45.175Z,63.34
2023-03-02T04:14:48.787Z,63.37
2023-03-02T04:17:53.401Z,63.43
2023-03-02T04:20:58.161Z,63.50
2023-03-02T04:24:01.457Z,63.52
2023-03-02T04:27:04.824Z,63.55
2023-03-02T04:30:09.746Z,63.62
2023-03-02T04:33:13.321Z,63.65
2023-03-02T04:36:16.627Z,63.61
2023-03-02T04:39:20.464Z,63.52
2023-03-02T04:42:26.436Z,63.47
2023-03-02T04:45:29.611Z,63.48
2023-03-02T04:48:33.238Z,63.54
2023-03-02T04:51:43.046Z,63.57
2023-03-02T04:54:46.286Z,63.63
2023-03-02T04:57:49.748Z,63.65
2023-03-02T05:00:54.783Z,63.72
2023-03-02T05:03:58.089Z,63.76
2023-03-02T05:07:01.435Z,63.81
2023-03-02T05:10:04.924Z,63.84
2023-03-02T05:13:08.255Z,63.92
2023-03-02T05:16:11.649Z,63.95
2023-03-02T05:19:15.223Z,63.99
2023-03-02T05:22:18.497Z,64.02
2023-03-02T05:25:22.191Z,63.96
2023-03-02T05:28:26.579Z,63.93
2023-03-02T05:31:42.150Z,63.87
2023-03-02T05:34:45.430Z,63.88
2023-03-02T05:37:49.151Z,63.93
2023-03-02T05:40:52.320Z,64.02
2023-03-02T05:43:55.876Z,64.07
2023-03-02T05:46:59.126Z,64.02
2023-03-02T05:50:02.432Z,63.99
2023-03-02T05:53:05.846Z,64.02
2023-03-02T05:56:09.658Z,64.02
2023-03-02T05:59:13.043Z,64.10
2023-03-02T06:02:16.679Z,64.18
2023-03-02T06:05:20.256Z,64.33
2023-03-02T06:08:23.475Z,64.41
2023-03-02T06:11:26.669Z,64.49
2023-03-02T06:14:29.999Z,64.62
2023-03-02T06:17:33.549Z,64.74
2023-03-02T06:20:36.794Z,64.85
2023-03-02T06:23:40.254Z,64.97
2023-03-02T06:26:43.878Z,65.10
2023-03-02T06:29:47.083Z,65.24
2023-03-02T06:32:50.806Z,65.37
2023-03-02T06:35:54.201Z,65.53
2023-03-02T06:38:57.455Z,65.68
2023-03-02T06:42:00.941Z,65.83
2023-03-02T06:45:05.040Z,66.02
2023-03-02T06:48:08.413Z,66.29
2023-03-02T06:51:12.763Z,66.45
2023-03-02T06:54:15.980Z,66.49
2023-03-02T06:57:19.254Z,66.55
2023-03-02T07:00:28.272Z,66.64
2023-03-02T07:03:31.621Z,66.70
2023-03-02T07:06:34.824Z,66.73
2023-03-02T07:09:38.056Z,66.78
2023-03-02T07:12:42.466Z,66.75
2023-03-02T07:15:45.732Z,66.69
2023-03-02T07:18:48.959Z,66.77
2023-03-02T07:21:52.163Z,66.89
2023-03-02T07:24:55.372Z,66.94
2023-03-02T07:27:59.009Z,67.07
2023-03-02T07:31:02.341Z,67.26
2023-03-02T07:34:05.611Z,67.41
2023-03-02T07:37:08.787Z,67.23
2023-03-02T07:40:12.972Z,66.86
2023-03-02T07:43:16.183Z,66.88
2023-03-02T07:46:19.450Z,66.91
2023-03-02T07:49:22.715Z,66.73
2023-03-02T07:52:25.909Z,66.68
2023-03-02T07:55:29.464Z,66.58
2023-03-02T07:58:32.818Z,66.38
2023-03-02T08:01:36.520Z,66.22
2023-03-02T08:04:40.369Z,65.90
2023-03-02T08:07:46.047Z,65.57
2023-03-02T08:10:49.564Z,65.30
2023-03-02T08:14:02.851Z,64.85
2023-03-02T08:17:07.043Z,64.48
2023-03-02T08:20:11.100Z,64.23
2023-03-02T08:26:31.926Z,63.23
2023-03-02T08:29:35.868Z,63.12
2023-03-02T08:32:40.175Z,62.57
2023-03-02T08:35:43.571Z,62.39
2023-03-02T08:38:48.281Z,62.09
2023-03-02T08:41:55.979Z,62.10
2023-03-02T08:45:00.950Z,61.90
2023-03-02T08:48:04.403Z,61.73
2023-03-02T08:51:11.865Z,61.71
2023-03-02T08:54:16.263Z,61.21
2023-03-02T08:57:59.253Z,60.88
2023-03-02T09:00:52.802Z,60.51
2023-03-02T09:03:57.766Z,60.37
2023-03-02T09:07:01.217Z,60.08
2023-03-02T09:10:04.917Z,59.60
2023-03-02T09:13:21.923Z,59.06
2023-03-02T09:16:33.251Z,58.68
2023-03-02T09:19:44.671Z,58.12
2023-03-02T09:22:50.910Z,57.76
2023-03-02T09:25:56.322Z,57.47
2023-03-02T09:28:59.712Z,57.38
2023-03-02T09:32:03.164Z,57.00
2023-03-02T09:35:07.197Z,56.48
2023-03-02T09:38:16.202Z,55.90
2023-03-02T09:41:19.820Z,55.63
2023-03-02T09:44:32.567Z,55.15
2023-03-02T09:47:47.038Z,54.64
2023-03-02T09:51:11.887Z,54.40
2023-03-02T09:54:20.685Z,54.00
2023-03-02T09:57:29.078Z,53.42
2023-03-02T10:00:36.523Z,53.06
2023-03-02T10:03:57.723Z,52.86
2023-03-02T10:07:29.348Z,53.05
2023-03-02T10:11:00.986Z,52.93
2023-03-02T10:14:12.941Z,52.74
2023-03-02T10:17:16.303Z,52.55
2023-03-02T10:20:22.926Z,52.82
2023-03-02T10:23:48.540Z,52.86
2023-03-02T10:26:55.188Z,52.83
2023-03-02T10:30:33.865Z,52.79
2023-03-02T10:33:40.659Z,53.10
2023-03-02T10:36:47.651Z,52.87
2023-03-02T10:39:52.092Z,52.95
2023-03-02T10:42:57.098Z,52.71
2023-03-02T10:46:01.917Z,52.64
2023-03-02T10:49:05.403Z,52.52
2023-03-02T10:52:15.994Z,52.50
2023-03-02T10:55:19.469Z,52.19
2023-03-02T10:58:29.648Z,51.92
2023-03-02T11:01:32.988Z,51.71
2023-03-02T11:04:36.418Z,51.62
2023-03-02T11:07:39.839Z,50.82
2023-03-02T11:11:00.507Z,50.55
2023-03-02T11:14:14.539Z,50.01
2023-03-02T11:17:32.170Z,49.81
2023-03-02T11:20:43.647Z,49.33
2023-03-02T11:24:29.190Z,49.25
2023-03-02T11:27:37.019Z,48.68
2023-03-02T11:30:47.623Z,48.08
2023-03-02T11:34:11.767Z,47.87
2023-03-02T11:37:23.592Z,47.80
2023-03-02T11:40:34.750Z,47.57
2023-03-02T11:43:38.459Z,46.84
2023-03-02T11:46:48.696Z,47.15
2023-03-02T11:49:59.207Z,46.86
2023-03-02T11:53:08.295Z,46.51
2023-03-02T11:56:12.238Z,46.42
2023-03-02T11:59:21.178Z,46.57
2023-03-02T12:02:27.063Z,46.32
2023-03-02T12:05:35.943Z,48.32
2023-03-02T12:08:42.564Z,47.35
2023-03-02T12:12:32.928Z,46.39
2023-03-02T12:15:43.104Z,46.53
2023-03-02T12:18:51.301Z,45.81
2023-03-02T12:22:05.770Z,45.58
2023-03-02T12:25:21.395Z,45.54
2023-03-02T12:28:42.319Z,45.48
2023-03-02T12:31:56.669Z,45.28
2023-03-02T12:35:09.193Z,45.58
2023-03-02T12:38:34.035Z,45.10
2023-03-02T12:42:23.499Z,45.31
2023-03-02T12:45:48.871Z,45.16
2023-03-02T12:49:33.521Z,44.60
2023-03-02T12:52:56.622Z,44.49
2023-03-02T12:56:00.835Z,44.54
2023-03-02T12:59:04.239Z,44.36
2023-03-02T13:02:24.486Z,44.09
2023-03-02T13:05:33.690Z,44.16
2023-03-02T13:08:37.341Z,43.70
2023-03-02T13:11:44.321Z,43.79
2023-03-02T13:14:56.494Z,43.88
2023-03-02T13:18:03.981Z,43.90
2023-03-02T13:21:13.494Z,43.97
2023-03-02T13:24:36.163Z,44.29
2023-03-02T13:27:39.421Z,44.43
2023-03-02T13:30:47.913Z,44.71
2023-03-02T13:33:53.728Z,44.69
2023-03-02T13:36:57.294Z,44.93
2023-03-02T13:40:30.303Z,44.92
2023-03-02T13:43:41.030Z,44.84
2023-03-02T13:46:48.287Z,45.28
2023-03-02T13:49:51.724Z,45.37
2023-03-02T13:53:06.377Z,45.36
2023-03-02T13:56:16.760Z,45.59
2023-03-02T13:59:22.268Z,45.27
2023-03-02T14:02:27.106Z,45.79
2023-03-02T14:05:33.610Z,45.75
2023-03-02T14:08:37.145Z,45.74
2023-03-02T14:11:43.930Z,45.88
2023-03-02T14:15:15.070Z,45.90
2023-03-02T14:18:36.705Z,45.70
2023-03-02T14:21:40.354Z,45.73
2023-03-02T14:24:59.705Z,46.32
2023-03-02T14:28:03.708Z,46.44
2023-03-02T14:31:10.045Z,46.81
2023-03-02T14:34:42.053Z,46.78
2023-03-02T14:37:44.742Z,46.80
2023-03-02T14:40:55.043Z,46.68
2023-03-02T14:43:58.421Z,46.68
2023-03-02T14:47:01.750Z,47.03
2023-03-02T14:50:06.196Z,47.04
2023-03-02T14:53:25.300Z,47.31
2023-03-02T14:56:29.011Z,47.54
2023-03-02T14:59:32.323Z,47.69
2023-03-02T15:02:35.820Z,47.83
2023-03-02T15:05:59.040Z,47.89
2023-03-02T15:09:29.021Z,48.01
2023-03-02T15:12:32.342Z,48.36
2023-03-02T15:15:44.801Z,48.37
2023-03-02T15:18:52.601Z,48.85
2023-03-02T15:21:57.183Z,48.91
2023-03-02T15:25:00.495Z,48.84
2023-03-02T15:28:04.107Z,48.99
2023-03-02T15:31:12.655Z,49.22
2023-03-02T15:34:16.792Z,49.38
2023-03-02T15:37:21.473Z,49.72
2023-03-02T15:40:25.695Z,49.94
2023-03-02T15:43:29.256Z,49.92
2023-03-02T15:46:32.809Z,50.18
2023-03-02T15:49:37.977Z,50.39
2023-03-02T15:52:42.064Z,50.52
2023-03-02T15:55:48.109Z,50.91
2023-03-02T15:58:51.671Z,51.17
2023-03-02T16:02:02.577Z,51.29
2023-03-02T16:05:06.211Z,51.37
2023-03-02T16:08:09.485Z,51.29
2023-03-02T16:11:18.746Z,51.42
2023-03-02T16:14:22.121Z,51.81
2023-03-02T16:17:25.359Z,51.79
2023-03-02T16:20:28.796Z,52.19
2023-03-02T16:23:32.076Z,52.34
2023-03-02T16:26:42.270Z,52.64
2023-03-02T16:29:45.577Z,53.04
2023-03-02T16:32:49.028Z,53.35
2023-03-02T16:35:52.269Z,53.60
2023-03-02T16:38:55.540Z,53.83
2023-03-02T16:41:58.781Z,54.14
2023-03-02T16:45:02.672Z,54.40
2023-03-02T16:48:06.558Z,54.56
2023-03-02T16:51:09.909Z,54.77
2023-03-02T16:54:22.291Z,55.01
2023-03-02T16:57:25.512Z,55.18
2023-03-02T17:00:31.304Z,54.84
2023-03-02T17:03:38.423Z,55.31
2023-03-02T17:06:59.752Z,55.56
2023-03-02T17:13:23.247Z,56.07
2023-03-02T17:16:26.685Z,56.29
2023-03-02T17:19:29.965Z,56.52
2023-03-02T17:22:34.010Z,56.70
2023-03-02T17:25:37.569Z,56.88
2023-03-02T17:28:40.879Z,57.07
2023-03-02T17:31:44.903Z,57.23
2023-03-02T17:34:48.214Z,57.43
2023-03-02T17:37:51.536Z,57.46
2023-03-02T17:40:54.799Z,57.63
2023-03-02T17:43:58.286Z,57.73
2023-03-02T17:47:03.962Z,57.81
2023-03-02T17:50:07.409Z,57.91
2023-03-02T17:53:10.726Z,58.03
2023-03-02T17:56:19.130Z,58.12
2023-03-02T17:59:22.395Z,58.28
2023-03-02T18:02:30.801Z,58.47
2023-03-02T18:05:34.129Z,58.64
2023-03-02T18:08:37.654Z,58.76
2023-03-02T18:11:43.941Z,58.91
2023-03-02T18:14:47.183Z,59.07
2023-03-02T18:17:50.470Z,59.14
2023-03-02T18:20:55.185Z,59.18
2023-03-02T18:23:58.565Z,59.30
2023-03-02T18:27:02.338Z,59.37
2023-03-02T18:30:06.418Z,59.45
2023-03-02T18:33:16.902Z,59.63
2023-03-02T18:36:20.423Z,59.67
2023-03-02T18:39:27.444Z,59.75
2023-03-02T18:42:39.510Z,59.87
2023-03-02T18:45:43.400Z,59.96
2023-03-02T18:48:47.754Z,59.96
2023-03-02T18:51:53.080Z,60.04
2023-03-02T18:54:59.201Z,60.14
2023-03-02T18:58:03.034Z,60.25
2023-03-02T19:01:07.395Z,60.28
2023-03-02T19:04:10.940Z,60.36
2023-03-02T19:07:14.236Z,60.43
2023-03-02T19:10:19.518Z,60.49
2023-03-02T19:13:24.653Z,60.50
2023-03-02T19:16:28.169Z,60.56
2023-03-02T19:19:31.825Z,60.62
2023-03-02T19:22:35.012Z,60.66
2023-03-02T19:25:38.795Z,60.70
2023-03-02T19:28:42.028Z,60.73
2023-03-02T19:31:45.363Z,60.80
2023-03-02T19:34:48.973Z,60.82
2023-03-02T19:37:52.348Z,60.90
2023-03-02T19:40:57.948Z,60.90
2023-03-02T19:44:02.039Z,60.86
2023-03-02T19:47:06.259Z,60.92
2023-03-02T19:50:10.140Z,60.97
2023-03-02T19:53:13.915Z,61.01
2023-03-02T19:56:20.402Z,61.09
2023-03-02T19:59:24.720Z,61.15
2023-03-02T20:02:28.549Z,61.22
2023-03-02T20:05:39.111Z,61.31
2023-03-02T20:08:42.438Z,61.37
2023-03-02T20:11:47.238Z,61.35
2023-03-02T20:14:52.857Z,61.47
2023-03-02T20:17:58.437Z,61.44
2023-03-02T20:21:01.986Z,61.45
2023-03-02T20:24:06.118Z,61.60
2023-03-02T20:27:11.619Z,61.77
2023-03-02T20:30:39.934Z,61.89
2023-03-02T20:33:49.338Z,62.05
2023-03-02T20:36:52.742Z,62.17
2023-03-02T20:39:56.473Z,62.26
2023-03-02T20:42:59.744Z,62.38
2023-03-02T20:46:03.870Z,62.50
2023-03-02T20:49:09.656Z,62.58
2023-03-02T20:52:12.922Z,62.63
2023-03-02T20:55:16.582Z,62.73
2023-03-02T20:58:19.978Z,62.90
2023-03-02T21:01:24.180Z,62.95
2023-03-02T21:04:27.535Z,62.98
2023-03-02T21:07:30.828Z,63.02
2023-03-02T21:10:36.538Z,63.05
2023-03-02T21:13:40.030Z,63.09
2023-03-02T21:16:44.907Z,63.08
2023-03-02T21:19:48.078Z,63.04
2023-03-02T21:22:51.502Z,63.04
2023-03-02T21:25:54.791Z,63.02
2023-03-02T21:28:58.124Z,62.99
2023-03-02T21:32:01.348Z,62.96
2023-03-02T21:35:05.360Z,63.13
2023-03-02T21:38:09.511Z,63.32
2023-03-02T21:41:12.773Z,63.51
2023-03-02T21:44:16.155Z,63.66
2023-03-02T21:47:23.245Z,63.87
2023-03-02T21:50:30.390Z,63.97
2023-03-02T21:53:34.348Z,63.82
2023-03-02T21:56:37.782Z,63.86
2023-03-02T21:59:41.384Z,63.84
2023-03-02T22:02:45.155Z,63.90
2023-03-02T22:05:49.947Z,63.95
2023-03-02T22:08:54.285Z,64.01
2023-03-02T22:11:58.184Z,63.94
2023-03-02T22:15:04.453Z,63.91
2023-03-02T22:18:20.177Z,64.08
2023-03-02T22:21:43.676Z,64.10
2023-03-02T22:24:50.375Z,63.89
2023-03-02T22:27:54.108Z,63.84
2023-03-02T22:31:00.450Z,63.85
2023-03-02T22:34:13.264Z,63.73
2023-03-02T22:37:25.961Z,63.67
2023-03-02T22:40:30.925Z,63.74
2023-03-02T22:43:35.656Z,63.77
2023-03-02T22:46:40.320Z,63.70
2023-03-02T22:49:43.973Z,63.68
2023-03-02T22:52:47.603Z,63.68
2023-03-02T22:55:59.995Z,63.56
2023-03-02T22:59:07.727Z,63.47
2023-03-02T23:02:18.512Z,63.36
2023-03-02T23:05:34.339Z,63.41
2023-03-02T23:08:37.662Z,63.50
2023-03-02T23:11:42.123Z,63.52
2023-03-02T23:14:50.359Z,63.52
2023-03-02T23:17:53.652Z,63.59
2023-03-02T23:20:57.698Z,63.60
2023-03-02T23:24:02.628Z,63.53
2023-03-02T23:27:06.395Z,63.57
2023-03-02T23:30:10.155Z,63.58
2023-03-02T23:33:13.584Z,63.61
2023-03-02T23:36:17.161Z,63.66
2023-03-02T23:39:20.536Z,63.64
2023-03-02T23:42:24.082Z,63.56
2023-03-02T23:45:27.483Z,63.57
2023-03-02T23:48:30.982Z,63.62
2023-03-02T23:51:34.443Z,63.59
2023-03-02T23:54:37.773Z,63.50
2023-03-02T23:57:41.514Z,63.53
